createdAt,value
2022-10-24T00:02:44.994Z,0.50
2022-10-24T00:06:14.937Z,0.50
2022-10-24T00:09:44.968Z,0.50
2022-10-24T00:13:15.001Z,0.43
2022-10-24T00:16:57.038Z,0.40
2022-10-24T00:20:33.138Z,0.50
2022-10-24T00:24:03.111Z,0.30
2022-10-24T00:27:33.149Z,0.50
2022-10-24T00:30:57.174Z,0.50
2022-10-24T00:34:21.203Z,1.55
2022-10-24T00:38:03.233Z,0.40
2022-10-24T00:41:33.270Z,0.68
2022-10-24T00:45:03.298Z,1.23
2022-10-24T01:08:52.717Z,0.40
2022-10-24T01:16:09.018Z,0.43
2022-10-24T01:19:24.384Z,0.60
2022-10-24T01:22:34.852Z,252.60
2022-10-24T01:25:35.980Z,254.18
2022-10-24T01:28:36.831Z,253.95
2022-10-24T01:31:44.968Z,0.47
2022-10-24T01:34:48.038Z,0.43
2022-10-24T01:37:57.033Z,1.70
2022-10-24T01:41:03.363Z,0.50
2022-10-24T01:44:09.411Z,0.40
2022-10-24T01:47:27.447Z,0.30
2022-10-24T01:50:33.477Z,1.73
2022-10-24T01:53:51.514Z,0.40
2022-10-24T01:56:57.545Z,1.08
2022-10-24T02:00:09.580Z,0.50
2022-10-24T02:06:27.646Z,0.50
2022-10-24T02:09:39.679Z,0.40
2022-10-24T02:12:42.589Z,0.50
2022-10-24T02:15:45.440Z,0.70
2022-10-24T02:18:51.472Z,0.50
2022-10-24T02:22:03.816Z,0.55
2022-10-24T02:25:09.537Z,0.40
2022-10-24T02:28:15.876Z,0.45
2022-10-24T02:31:21.908Z,0.50
2022-10-24T02:34:33.632Z,0.63
2022-10-24T02:37:39.662Z,0.60
2022-10-24T02:40:46.006Z,0.50
2022-10-24T02:43:52.030Z,0.80
2022-10-24T02:46:58.057Z,0.45
2022-10-24T02:50:10.084Z,0.50
2022-10-24T02:53:15.817Z,0.52
2022-10-24T02:56:22.135Z,0.50
2022-10-24T02:59:27.871Z,0.60
2022-10-24T03:02:34.191Z,0.50
2022-10-24T03:05:45.926Z,0.60
2022-10-24T03:08:52.247Z,0.30
2022-10-24T03:12:03.979Z,0.40
2022-10-24T03:15:10.300Z,0.70
2022-10-24T03:18:16.036Z,0.80
2022-10-24T03:21:28.064Z,0.60
2022-10-24T03:24:44.075Z,0.52
2022-10-24T03:27:58.418Z,0.70
2022-10-24T03:31:04.147Z,0.40
2022-10-24T03:34:10.172Z,0.60
2022-10-24T03:37:22.201Z,0.60
2022-10-24T03:40:28.227Z,1.08
2022-10-24T03:43:34.257Z,0.70
2022-10-24T03:46:40.585Z,0.50
2022-10-24T03:50:34.325Z,254.88
2022-10-24T03:53:28.353Z,255.93
2022-10-24T03:56:28.387Z,254.85
2022-10-24T03:59:28.417Z,254.50
2022-10-24T04:02:28.447Z,254.63
2022-10-24T04:05:28.807Z,253.82
2022-10-24T04:08:33.011Z,253.68
2022-10-24T04:11:28.789Z,254.60
2022-10-24T04:14:34.817Z,254.13
2022-10-24T04:17:40.844Z,254.07
2022-10-24T04:20:46.621Z,254.93
2022-10-24T04:23:58.648Z,254.63
2022-10-24T04:30:34.991Z,254.82
2022-10-24T04:33:40.976Z,255.35
2022-10-24T04:36:46.774Z,254.05
2022-10-24T04:39:51.697Z,254.95
2022-10-24T04:42:52.808Z,255.02
2022-10-24T04:45:58.837Z,254.25
2022-10-24T04:49:05.109Z,256.00
2022-10-24T04:52:10.877Z,254.88
2022-10-24T04:55:22.913Z,255.13
2022-10-24T04:58:28.940Z,254.30
2022-10-24T05:01:35.254Z,254.27
2022-10-24T05:04:29.237Z,255.02
2022-10-24T05:07:41.743Z,254.77
2022-10-24T05:10:38.031Z,254.18
2022-10-24T05:13:23.617Z,254.73
2022-10-24T05:19:59.671Z,255.02
2022-10-24T05:23:23.701Z,255.23
2022-10-24T05:27:23.737Z,256.02
2022-10-24T05:31:05.037Z,254.57
2022-10-24T05:54:48.774Z,254.77
2022-10-24T05:58:06.119Z,254.98
2022-10-24T06:05:11.619Z,255.50
2022-10-24T06:08:00.102Z,254.85
2022-10-24T06:11:14.026Z,253.98
2022-10-24T06:14:22.473Z,254.13
2022-10-24T06:35:27.268Z,252.68
2022-10-24T06:42:40.710Z,253.75
2022-10-24T07:00:38.416Z,254.32
2022-10-24T07:03:25.920Z,253.38
2022-10-24T07:06:09.666Z,254.10
2022-10-24T08:19:51.303Z,142.30
2022-10-24T08:22:34.283Z,126.13
2022-10-24T08:25:14.559Z,124.38
2022-10-24T08:28:17.358Z,123.88
2022-10-24T08:31:11.625Z,120.28
2022-10-24T08:33:58.248Z,111.82
2022-10-24T08:36:44.405Z,112.50
2022-10-24T08:39:14.813Z,111.82
2022-10-24T08:42:00.240Z,112.20
2022-10-24T08:44:55.440Z,111.72
2022-10-24T08:47:42.735Z,112.22
2022-10-24T08:50:34.659Z,1.48
2022-10-24T08:56:35.866Z,0.63
2022-10-24T08:59:05.552Z,0.80
2022-10-24T09:01:39.568Z,0.85
2022-10-24T09:04:14.390Z,0.77
2022-10-24T09:06:43.170Z,0.75
2022-10-24T09:09:20.223Z,113.15
2022-10-24T09:11:53.347Z,111.93
2022-10-24T09:14:24.286Z,113.10
2022-10-24T09:16:55.514Z,112.72
2022-10-24T09:19:25.525Z,112.03
2022-10-24T09:21:56.887Z,112.20
2022-10-24T09:24:40.665Z,112.50
2022-10-24T09:27:16.899Z,111.88
2022-10-24T09:29:45.100Z,112.38
2022-10-24T09:40:46.193Z,129.52
2022-10-24T09:44:57.997Z,129.43
2022-10-24T09:52:39.509Z,0.80
2022-10-24T10:00:40.424Z,0.95
2022-10-24T10:08:05.601Z,0.60
2022-10-24T10:20:28.319Z,0.57
2022-10-24T10:32:41.568Z,0.60
2022-10-24T10:35:40.369Z,0.60
2022-10-24T10:39:23.886Z,0.70
2022-10-24T10:42:09.757Z,0.85
2022-10-24T10:45:00.435Z,1.52
2022-10-24T10:47:41.816Z,1.42
2022-10-24T10:50:25.656Z,1.33
2022-10-24T10:53:02.489Z,0.98
2022-10-24T10:55:39.100Z,2.10
2022-10-24T10:58:26.475Z,1.77
2022-10-24T11:01:07.569Z,0.95
2022-10-24T11:03:42.743Z,0.50
2022-10-24T11:06:27.106Z,1.63
2022-10-24T11:09:35.593Z,1.05
2022-10-24T11:12:12.645Z,0.93
2022-10-24T11:14:46.536Z,2.13
2022-10-24T11:17:19.106Z,1.02
2022-10-24T11:19:59.100Z,0.85
2022-10-24T11:22:33.819Z,1.55
2022-10-24T11:34:36.286Z,1.67
2022-10-24T11:43:07.435Z,0.40
2022-10-24T11:46:56.728Z,0.75
2022-10-24T12:03:49.320Z,0.38
2022-10-24T12:06:53.025Z,0.20
2022-10-24T12:09:57.542Z,0.75
2022-10-24T12:13:24.410Z,1.98
2022-10-24T12:16:15.280Z,0.50
2022-10-24T12:19:09.452Z,0.65
2022-10-24T12:22:03.856Z,0.45
2022-10-24T12:24:59.189Z,1.17
2022-10-24T12:27:57.398Z,0.32
2022-10-24T12:30:49.722Z,1.27
2022-10-24T12:33:33.392Z,0.85
2022-10-24T12:36:40.958Z,0.38
2022-10-24T12:39:47.382Z,1.85
2022-10-24T12:43:02.564Z,0.43
2022-10-24T12:45:56.390Z,0.40
2022-10-24T12:48:56.422Z,0.30
2022-10-24T12:51:39.111Z,1.30
2022-10-24T12:54:51.247Z,0.50
2022-10-24T12:57:39.381Z,0.40
2022-10-24T13:00:42.778Z,0.50
2022-10-24T13:07:25.414Z,0.40
2022-10-24T13:10:49.720Z,0.50
2022-10-24T13:14:02.273Z,0.52
2022-10-24T13:16:46.610Z,0.52
2022-10-24T13:19:41.518Z,0.43
2022-10-24T13:22:45.896Z,0.40
2022-10-24T13:25:34.420Z,0.93
2022-10-24T13:28:44.092Z,0.40
2022-10-24T13:31:42.149Z,0.50
2022-10-24T13:34:35.060Z,0.80
2022-10-24T13:37:28.030Z,0.50
2022-10-24T13:40:18.849Z,1.00
2022-10-24T13:43:21.429Z,0.40
2022-10-24T13:50:20.258Z,0.50
2022-10-24T13:53:10.200Z,0.60
2022-10-24T13:56:10.225Z,0.50
2022-10-24T13:59:16.257Z,0.70
2022-10-24T14:02:35.865Z,1.10
2022-10-24T14:05:48.795Z,0.70
2022-10-24T14:09:23.512Z,0.50
2022-10-24T14:12:13.043Z,0.50
2022-10-24T14:15:28.424Z,0.70
2022-10-24T14:18:52.460Z,1.42
2022-10-24T14:22:16.415Z,0.50
2022-10-24T14:27:53.571Z,0.45
2022-10-24T14:30:37.174Z,0.50
2022-10-24T14:33:56.753Z,0.45
2022-10-24T14:36:56.471Z,0.50
2022-10-24T14:40:14.811Z,0.65
2022-10-24T14:43:12.352Z,0.65
2022-10-24T14:46:28.288Z,0.93
2022-10-24T14:49:50.893Z,0.47
2022-10-24T14:57:11.559Z,1.85
2022-10-24T15:00:06.082Z,1.05
2022-10-24T15:03:06.321Z,0.47
2022-10-24T15:09:51.366Z,0.70
2022-10-24T15:12:37.076Z,122.95
2022-10-24T15:15:33.308Z,124.57
2022-10-24T15:18:11.948Z,0.52
2022-10-24T15:20:57.143Z,0.50
2022-10-24T15:24:15.487Z,0.70
2022-10-24T15:27:45.921Z,68.28
2022-10-24T15:30:51.232Z,152.15
2022-10-24T15:33:57.571Z,179.50
2022-10-24T15:37:09.595Z,0.50
2022-10-24T15:40:03.617Z,0.40
2022-10-24T15:43:05.531Z,0.52
2022-10-24T15:46:03.360Z,0.40
2022-10-24T15:49:00.823Z,0.60
2022-10-24T15:52:00.644Z,0.50
2022-10-24T15:54:57.751Z,0.50
2022-10-24T15:57:57.769Z,0.35
2022-10-24T16:00:57.867Z,0.45
2022-10-24T16:03:41.033Z,0.40
2022-10-24T16:06:13.679Z,0.50
2022-10-24T16:08:47.945Z,0.50
2022-10-24T16:11:45.901Z,0.45
2022-10-24T16:14:44.290Z,0.70
2022-10-24T16:17:39.968Z,0.55
2022-10-24T16:20:39.997Z,1.85
2022-10-24T16:23:40.082Z,0.60
2022-10-24T16:26:42.969Z,0.70
2022-10-24T16:29:42.995Z,0.50
2022-10-24T16:32:40.091Z,0.50
2022-10-24T16:35:38.918Z,0.70
2022-10-24T16:38:40.137Z,0.55
2022-10-24T16:41:40.166Z,0.60
2022-10-24T16:44:25.124Z,0.68
2022-10-24T16:47:28.214Z,0.70
2022-10-24T16:50:25.184Z,0.50
2022-10-24T16:53:25.214Z,0.43
2022-10-24T16:56:25.242Z,0.50
2022-10-24T16:59:28.318Z,0.60
2022-10-24T17:02:25.342Z,0.40
2022-10-24T17:05:22.382Z,0.60
2022-10-24T17:08:22.395Z,0.60
2022-10-24T17:11:44.270Z,0.57
2022-10-24T17:14:43.410Z,0.60
2022-10-24T17:17:40.476Z,0.60
2022-10-24T17:20:40.499Z,0.70
2022-10-24T17:23:40.526Z,0.50
2022-10-24T17:26:37.520Z,0.70
2022-10-24T17:29:46.256Z,0.55
2022-10-24T17:32:43.752Z,0.60
2022-10-24T17:35:43.170Z,0.70
2022-10-24T17:38:43.634Z,0.60
2022-10-24T17:41:42.227Z,0.50
2022-10-24T17:44:37.701Z,0.70
2022-10-24T17:47:40.763Z,0.63
2022-10-24T17:50:37.747Z,0.50
2022-10-24T17:53:25.772Z,0.70
2022-10-24T17:56:25.661Z,0.77
2022-10-24T17:59:21.016Z,0.73
2022-10-24T18:02:10.475Z,0.68
2022-10-24T18:05:10.882Z,0.50
2022-10-24T18:08:07.916Z,0.60
2022-10-24T18:11:04.940Z,0.70
2022-10-24T18:14:01.958Z,0.82
2022-10-24T18:17:01.985Z,0.63
2022-10-24T18:19:58.703Z,0.75
2022-10-24T18:23:04.735Z,0.50
2022-10-24T18:26:07.169Z,0.60
2022-10-24T18:29:19.196Z,2.10
2022-10-24T18:32:25.219Z,0.63
2022-10-24T18:35:32.151Z,0.50
2022-10-24T18:38:43.272Z,0.70
2022-10-24T18:41:55.300Z,0.65
2022-10-24T18:45:14.251Z,0.70
2022-10-24T18:52:25.385Z,0.52
2022-10-24T18:59:08.370Z,0.63
2022-10-24T19:10:13.535Z,0.52
2022-10-24T19:14:07.570Z,0.60
2022-10-24T19:17:44.528Z,0.75
2022-10-24T19:21:08.557Z,0.63
2022-10-24T20:16:55.872Z,0.43
2022-10-24T20:20:09.279Z,0.50
2022-10-24T20:23:21.308Z,0.50
2022-10-24T20:26:27.027Z,0.55
2022-10-24T20:29:39.071Z,0.60
2022-10-24T20:32:57.385Z,0.40
2022-10-24T20:36:03.104Z,0.60
2022-10-24T20:39:15.443Z,0.88
2022-10-24T20:42:27.157Z,0.52
2022-10-24T20:45:33.508Z,0.60
2022-10-24T20:48:51.216Z,0.55
2022-10-24T20:51:57.607Z,0.50
2022-10-24T20:55:19.684Z,0.50
2022-10-24T20:58:38.335Z,0.52
2022-10-24T21:01:38.458Z,0.50
2022-10-24T21:04:44.383Z,0.40
2022-10-24T21:07:44.409Z,0.50
2022-10-24T21:10:44.435Z,0.60
2022-10-24T21:13:51.753Z,0.50
2022-10-24T21:16:57.776Z,0.47
2022-10-24T21:20:09.805Z,0.47
2022-10-24T21:23:21.830Z,0.60
2022-10-24T21:26:27.857Z,0.40
2022-10-24T21:29:34.363Z,0.50
2022-10-24T21:32:39.920Z,0.50
2022-10-24T21:35:57.953Z,0.53
2022-10-24T21:39:08.694Z,0.60
2022-10-24T21:42:16.031Z,0.50
2022-10-24T21:45:26.757Z,0.50
2022-10-24T21:48:34.059Z,0.57
2022-10-24T21:51:51.793Z,0.40
2022-10-24T21:54:58.122Z,0.50
2022-10-24T21:58:09.845Z,0.40
2022-10-24T22:01:16.291Z,0.60
2022-10-24T22:04:26.913Z,0.50
2022-10-24T22:07:34.257Z,0.50
2022-10-24T22:10:45.972Z,0.47
2022-10-24T22:13:52.325Z,0.55
2022-10-24T22:17:04.041Z,0.50
2022-10-24T22:20:10.378Z,0.50
2022-10-24T22:23:21.103Z,0.50
2022-10-24T22:26:27.134Z,0.38
2022-10-24T22:29:28.469Z,0.40
2022-10-24T22:32:39.194Z,0.50
2022-10-24T22:35:40.524Z,0.60
2022-10-24T22:38:51.255Z,0.50
2022-10-24T22:41:52.606Z,0.50
2022-10-24T22:44:57.316Z,0.50
2022-10-24T22:48:16.634Z,0.52
2022-10-24T22:51:21.368Z,0.60
2022-10-24T22:54:28.682Z,0.43
2022-10-24T23:00:39.451Z,0.32
2022-10-24T23:03:51.477Z,0.50
2022-10-24T23:06:58.788Z,0.50
2022-10-24T23:10:09.531Z,0.40
2022-10-24T23:13:16.843Z,0.60
2022-10-24T23:16:27.583Z,0.50
2022-10-24T23:19:40.895Z,0.68
2022-10-24T23:22:58.444Z,0.45
2022-10-24T23:26:16.953Z,0.35
2022-10-24T23:29:33.699Z,0.40
2022-10-24T23:32:45.979Z,0.38
2022-10-24T23:35:57.750Z,0.50
2022-10-24T23:39:09.841Z,0.55
2022-10-24T23:42:27.807Z,0.60
2022-10-24T23:45:45.837Z,0.40
2022-10-24T23:49:09.862Z,0.50
2022-10-24T23:52:21.888Z,0.40
2022-10-24T23:55:33.918Z,0.32
2022-10-24T23:58:45.941Z,0.30
